sensor_id;sensor_type;location;lat;lon;timestamp;pressure;altitude;pressure_sealevel;temperature;humidity
43711;BME280;29309;42.682;23.372;2023-04-25T00:01:17;94477.75;;;11.37;95.79
43711;BME280;29309;42.682;23.372;2023-04-25T00:03:44;94475.84;;;11.42;96.10
43711;BME280;29309;42.682;23.372;2023-04-25T00:06:09;94468.22;;;11.42;95.44
43711;BME280;29309;42.682;23.372;2023-04-25T00:08:35;94470.28;;;11.42;95.53
43711;BME280;29309;42.682;23.372;2023-04-25T00:11:00;94461.94;;;11.42;95.04
43711;BME280;29309;42.682;23.372;2023-04-25T00:13:26;94450.69;;;11.38;95.06
43711;BME280;29309;42.682;23.372;2023-04-25T00:15:52;94450.41;;;11.29;94.96
43711;BME280;29309;42.682;23.372;2023-04-25T00:18:21;94438.16;;;11.17;95.68
43711;BME280;29309;42.682;23.372;2023-04-25T00:20:47;94441.38;;;11.09;96.12
43711;BME280;29309;42.682;23.372;2023-04-25T00:23:16;94430.03;;;11.03;95.88
43711;BME280;29309;42.682;23.372;2023-04-25T00:25:45;94418.66;;;10.95;96.36
43711;BME280;29309;42.682;23.372;2023-04-25T00:28:12;94421.19;;;10.89;96.53
43711;BME280;29309;42.682;23.372;2023-04-25T00:30:38;94428.13;;;10.88;97.05
43711;BME280;29309;42.682;23.372;2023-04-25T00:33:04;94429.41;;;10.85;97.53
43711;BME280;29309;42.682;23.372;2023-04-25T00:35:30;94415.22;;;10.77;97.58
43711;BME280;29309;42.682;23.372;2023-04-25T00:37:55;94412.19;;;10.71;97.86
43711;BME280;29309;42.682;23.372;2023-04-25T00:40:21;94416.91;;;10.66;98.42
43711;BME280;29309;42.682;23.372;2023-04-25T00:42:47;94419.59;;;10.64;99.22
43711;BME280;29309;42.682;23.372;2023-04-25T00:45:14;94425.16;;;10.64;99.14
43711;BME280;29309;42.682;23.372;2023-04-25T00:47:40;94415.91;;;10.58;99.27
43711;BME280;29309;42.682;23.372;2023-04-25T00:50:07;94411.06;;;10.58;99.64
43711;BME280;29309;42.682;23.372;2023-04-25T00:52:32;94403.22;;;10.53;99.94
43711;BME280;29309;42.682;23.372;2023-04-25T00:54:58;94393.53;;;10.54;100.00
43711;BME280;29309;42.682;23.372;2023-04-25T00:57:24;94394.25;;;10.54;100.00
43711;BME280;29309;42.682;23.372;2023-04-25T00:59:51;94400.59;;;10.57;100.00
43711;BME280;29309;42.682;23.372;2023-04-25T01:02:19;94406.06;;;10.55;100.00
43711;BME280;29309;42.682;23.372;2023-04-25T01:04:46;94406.78;;;10.55;100.00
43711;BME280;29309;42.682;23.372;2023-04-25T01:07:12;94396.41;;;10.56;100.00
43711;BME280;29309;42.682;23.372;2023-04-25T01:09:38;94402.09;;;10.60;100.00
43711;BME280;29309;42.682;23.372;2023-04-25T01:12:04;94404.78;;;10.58;100.00
43711;BME280;29309;42.682;23.372;2023-04-25T01:14:30;94395.28;;;10.63;100.00
43711;BME280;29309;42.682;23.372;2023-04-25T01:16:55;94382.94;;;10.68;100.00
43711;BME280;29309;42.682;23.372;2023-04-25T01:19:21;94375.53;;;10.74;100.00
43711;BME280;29309;42.682;23.372;2023-04-25T01:21:46;94370.78;;;10.77;100.00
43711;BME280;29309;42.682;23.372;2023-04-25T01:24:12;94379.84;;;10.77;100.00
43711;BME280;29309;42.682;23.372;2023-04-25T01:26:39;94377.06;;;10.77;100.00
43711;BME280;29309;42.682;23.372;2023-04-25T01:29:09;94368.94;;;10.83;100.00
43711;BME280;29309;42.682;23.372;2023-04-25T01:31:36;94371.09;;;10.85;100.00
43711;BME280;29309;42.682;23.372;2023-04-25T01:34:01;94377.91;;;10.82;100.00
43711;BME280;29309;42.682;23.372;2023-04-25T01:36:27;94365.25;;;10.77;100.00
43711;BME280;29309;42.682;23.372;2023-04-25T01:38:53;94368.88;;;10.81;100.00
43711;BME280;29309;42.682;23.372;2023-04-25T01:41:19;94372.28;;;10.80;100.00
43711;BME280;29309;42.682;23.372;2023-04-25T01:43:45;94378.25;;;10.72;100.00
43711;BME280;29309;42.682;23.372;2023-04-25T01:46:11;94377.53;;;10.72;100.00
43711;BME280;29309;42.682;23.372;2023-04-25T01:48:36;94380.97;;;10.70;100.00
43711;BME280;29309;42.682;23.372;2023-04-25T01:51:02;94377.50;;;10.70;100.00
43711;BME280;29309;42.682;23.372;2023-04-25T01:53:28;94380.84;;;10.66;100.00
43711;BME280;29309;42.682;23.372;2023-04-25T01:55:53;94385.56;;;10.64;100.00
43711;BME280;29309;42.682;23.372;2023-04-25T01:58:19;94390.34;;;10.61;100.00
43711;BME280;29309;42.682;23.372;2023-04-25T02:00:44;94386.09;;;10.58;100.00
43711;BME280;29309;42.682;23.372;2023-04-25T02:03:10;94385.38;;;10.58;100.00
43711;BME280;29309;42.682;23.372;2023-04-25T02:05:39;94371.44;;;10.56;100.00
43711;BME280;29309;42.682;23.372;2023-04-25T02:08:06;94375.53;;;10.55;100.00
43711;BME280;29309;42.682;23.372;2023-04-25T02:10:33;94376.81;;;10.52;99.96
43711;BME280;29309;42.682;23.372;2023-04-25T02:12:59;94379.59;;;10.52;100.00
43711;BME280;29309;42.682;23.372;2023-04-25T02:15:24;94370.63;;;10.53;99.99
43711;BME280;29309;42.682;23.372;2023-04-25T02:17:50;94359.38;;;10.49;100.00
43711;BME280;29309;42.682;23.372;2023-04-25T02:20:18;94367.69;;;10.49;100.00
43711;BME280;29309;42.682;23.372;2023-04-25T02:22:45;94366.34;;;10.50;100.00
43711;BME280;29309;42.682;23.372;2023-04-25T02:25:11;94349.66;;;10.48;99.84
43711;BME280;29309;42.682;23.372;2023-04-25T02:27:36;94344.72;;;10.47;100.00
43711;BME280;29309;42.682;23.372;2023-04-25T02:30:02;94348.22;;;10.47;100.00
43711;BME280;29309;42.682;23.372;2023-04-25T02:32:28;94339.13;;;10.45;100.00
43711;BME280;29309;42.682;23.372;2023-04-25T02:34:53;94341.09;;;10.42;100.00
43711;BME280;29309;42.682;23.372;2023-04-25T02:37:19;94338.19;;;10.38;99.78
43711;BME280;29309;42.682;23.372;2023-04-25T02:39:44;94326.38;;;10.38;99.96
43711;BME280;29309;42.682;23.372;2023-04-25T02:42:10;94328.44;;;10.37;99.97
43711;BME280;29309;42.682;23.372;2023-04-25T02:44:36;94338.75;;;10.34;99.55
43711;BME280;29309;42.682;23.372;2023-04-25T02:47:01;94333.06;;;10.30;99.71
43711;BME280;29309;42.682;23.372;2023-04-25T02:49:26;94328.84;;;10.29;99.97
43711;BME280;29309;42.682;23.372;2023-04-25T02:51:52;94337.09;;;10.27;99.78
43711;BME280;29309;42.682;23.372;2023-04-25T02:54:17;94327.34;;;10.26;100.00
43711;BME280;29309;42.682;23.372;2023-04-25T02:56:43;94320.38;;;10.25;100.00
43711;BME280;29309;42.682;23.372;2023-04-25T02:59:08;94324.34;;;10.20;100.00
43711;BME280;29309;42.682;23.372;2023-04-25T03:01:33;94322.22;;;10.19;100.00
43711;BME280;29309;42.682;23.372;2023-04-25T03:03:59;94327.69;;;10.17;100.00
43711;BME280;29309;42.682;23.372;2023-04-25T03:06:24;94328.31;;;10.15;100.00
43711;BME280;29309;42.682;23.372;2023-04-25T03:08:50;94323.50;;;10.16;100.00
43711;BME280;29309;42.682;23.372;2023-04-25T03:11:15;94321.16;;;10.10;100.00
43711;BME280;29309;42.682;23.372;2023-04-25T03:13:41;94316.19;;;10.07;100.00
43711;BME280;29309;42.682;23.372;2023-04-25T03:16:06;94322.44;;;10.07;100.00
43711;BME280;29309;42.682;23.372;2023-04-25T03:18:31;94313.50;;;10.09;100.00
43711;BME280;29309;42.682;23.372;2023-04-25T03:20:57;94316.13;;;10.05;100.00
43711;BME280;29309;42.682;23.372;2023-04-25T03:23:22;94317.88;;;9.96;100.00
43711;BME280;29309;42.682;23.372;2023-04-25T03:25:48;94315.81;;;9.97;100.00
43711;BME280;29309;42.682;23.372;2023-04-25T03:28:14;94321.44;;;9.99;100.00
43711;BME280;29309;42.682;23.372;2023-04-25T03:30:40;94313.81;;;9.99;100.00
43711;BME280;29309;42.682;23.372;2023-04-25T03:33:05;94315.03;;;9.94;100.00
43711;BME280;29309;42.682;23.372;2023-04-25T03:35:30;94316.31;;;9.91;100.00
43711;BME280;29309;42.682;23.372;2023-04-25T03:37:56;94322.47;;;9.89;100.00
43711;BME280;29309;42.682;23.372;2023-04-25T03:40:21;94307.28;;;9.91;100.00
43711;BME280;29309;42.682;23.372;2023-04-25T03:42:47;94314.00;;;9.85;100.00
43711;BME280;29309;42.682;23.372;2023-04-25T03:45:12;94317.50;;;9.86;100.00
43711;BME280;29309;42.682;23.372;2023-04-25T03:47:38;94310.69;;;9.89;100.00
43711;BME280;29309;42.682;23.372;2023-04-25T03:50:03;94310.81;;;9.93;100.00
43711;BME280;29309;42.682;23.372;2023-04-25T03:52:29;94312.16;;;9.92;100.00
43711;BME280;29309;42.682;23.372;2023-04-25T03:54:54;94318.03;;;10.00;100.00
43711;BME280;29309;42.682;23.372;2023-04-25T03:57:20;94317.94;;;10.16;100.00
43711;BME280;29309;42.682;23.372;2023-04-25T03:59:45;94303.88;;;10.29;100.00
43711;BME280;29309;42.682;23.372;2023-04-25T04:02:10;94320.09;;;10.37;100.00
43711;BME280;29309;42.682;23.372;2023-04-25T04:04:36;94314.63;;;10.39;100.00
43711;BME280;29309;42.682;23.372;2023-04-25T04:07:02;94315.78;;;10.52;100.00
43711;BME280;29309;42.682;23.372;2023-04-25T04:09:27;94320.75;;;10.55;99.07
43711;BME280;29309;42.682;23.372;2023-04-25T04:11:53;94331.22;;;10.57;98.82
43711;BME280;29309;42.682;23.372;2023-04-25T04:14:18;94329.50;;;10.67;98.66
43711;BME280;29309;42.682;23.372;2023-04-25T04:16:44;94332.50;;;10.73;98.32
43711;BME280;29309;42.682;23.372;2023-04-25T04:19:10;94334.19;;;10.82;97.33
43711;BME280;29309;42.682;23.372;2023-04-25T04:21:35;94334.91;;;10.83;96.64
43711;BME280;29309;42.682;23.372;2023-04-25T04:24:01;94336.41;;;10.86;96.83
43711;BME280;29309;42.682;23.372;2023-04-25T04:26:27;94336.63;;;10.92;96.70
43711;BME280;29309;42.682;23.372;2023-04-25T04:28:52;94338.75;;;10.94;95.84
43711;BME280;29309;42.682;23.372;2023-04-25T04:31:20;94336.06;;;10.96;95.93
43711;BME280;29309;42.682;23.372;2023-04-25T04:33:45;94332.56;;;10.95;95.76
43711;BME280;29309;42.682;23.372;2023-04-25T04:36:11;94327.28;;;11.03;95.55
43711;BME280;29309;42.682;23.372;2023-04-25T04:38:37;94320.50;;;11.08;95.70
43711;BME280;29309;42.682;23.372;2023-04-25T04:41:03;94316.38;;;11.09;95.71
43711;BME280;29309;42.682;23.372;2023-04-25T04:43:28;94322.56;;;11.08;95.29
43711;BME280;29309;42.682;23.372;2023-04-25T04:45:55;94321.38;;;10.93;95.55
43711;BME280;29309;42.682;23.372;2023-04-25T04:48:21;94325.53;;;10.92;95.58
43711;BME280;29309;42.682;23.372;2023-04-25T04:50:47;94325.38;;;10.88;95.41
43711;BME280;29309;42.682;23.372;2023-04-25T04:53:12;94326.53;;;10.81;95.70
43711;BME280;29309;42.682;23.372;2023-04-25T04:55:38;94337.69;;;10.83;95.65
43711;BME280;29309;42.682;23.372;2023-04-25T04:58:03;94346.03;;;10.83;96.35
43711;BME280;29309;42.682;23.372;2023-04-25T05:00:29;94349.78;;;10.92;97.28
43711;BME280;29309;42.682;23.372;2023-04-25T05:02:55;94346.00;;;11.03;98.18
43711;BME280;29309;42.682;23.372;2023-04-25T05:05:21;94342.00;;;11.08;98.21
43711;BME280;29309;42.682;23.372;2023-04-25T05:07:47;94347.50;;;11.06;97.77
43711;BME280;29309;42.682;23.372;2023-04-25T05:10:12;94346.84;;;11.07;97.15
43711;BME280;29309;42.682;23.372;2023-04-25T05:12:38;94362.16;;;11.08;97.27
43711;BME280;29309;42.682;23.372;2023-04-25T05:15:03;94357.47;;;11.13;97.70
43711;BME280;29309;42.682;23.372;2023-04-25T05:17:29;94360.38;;;11.17;97.96
43711;BME280;29309;42.682;23.372;2023-04-25T05:19:55;94350.91;;;11.24;97.97
43711;BME280;29309;42.682;23.372;2023-04-25T05:22:20;94357.22;;;11.26;97.90
43711;BME280;29309;42.682;23.372;2023-04-25T05:24:45;94353.81;;;11.28;98.01
43711;BME280;29309;42.682;23.372;2023-04-25T05:27:11;94360.19;;;11.32;97.90
43711;BME280;29309;42.682;23.372;2023-04-25T05:29:36;94347.69;;;11.31;97.67
43711;BME280;29309;42.682;23.372;2023-04-25T05:32:02;94352.00;;;11.36;97.59
43711;BME280;29309;42.682;23.372;2023-04-25T05:34:27;94350.78;;;11.42;98.05
43711;BME280;29309;42.682;23.372;2023-04-25T05:36:53;94346.66;;;11.43;97.62
43711;BME280;29309;42.682;23.372;2023-04-25T05:39:18;94352.41;;;11.49;97.99
43711;BME280;29309;42.682;23.372;2023-04-25T05:41:44;94346.31;;;11.54;97.94
43711;BME280;29309;42.682;23.372;2023-04-25T05:44:09;94350.03;;;11.61;97.90
43711;BME280;29309;42.682;23.372;2023-04-25T05:46:35;94350.91;;;11.67;97.94
43711;BME280;29309;42.682;23.372;2023-04-25T05:49:01;94352.13;;;11.62;95.46
43711;BME280;29309;42.682;23.372;2023-04-25T05:51:26;94348.00;;;11.63;94.52
43711;BME280;29309;42.682;23.372;2023-04-25T05:53:53;94355.25;;;11.72;94.24
43711;BME280;29309;42.682;23.372;2023-04-25T05:56:18;94359.66;;;11.79;93.11
43711;BME280;29309;42.682;23.372;2023-04-25T05:58:44;94359.06;;;11.83;93.19
43711;BME280;29309;42.682;23.372;2023-04-25T06:01:09;94350.69;;;11.81;92.42
43711;BME280;29309;42.682;23.372;2023-04-25T06:03:35;94354.69;;;11.76;91.00
43711;BME280;29309;42.682;23.372;2023-04-25T06:06:00;94356.19;;;11.79;91.50
43711;BME280;29309;42.682;23.372;2023-04-25T06:08:26;94355.06;;;11.88;90.25
43711;BME280;29309;42.682;23.372;2023-04-25T06:10:51;94359.31;;;11.91;90.36
43711;BME280;29309;42.682;23.372;2023-04-25T06:13:17;94357.38;;;11.96;90.00
43711;BME280;29309;42.682;23.372;2023-04-25T06:15:42;94354.03;;;11.99;89.74
43711;BME280;29309;42.682;23.372;2023-04-25T06:18:08;94360.34;;;12.02;88.73
43711;BME280;29309;42.682;23.372;2023-04-25T06:20:33;94354.78;;;12.02;88.15
43711;BME280;29309;42.682;23.372;2023-04-25T06:23:00;94358.66;;;12.14;88.26
43711;BME280;29309;42.682;23.372;2023-04-25T06:25:25;94353.34;;;12.22;87.65
43711;BME280;29309;42.682;23.372;2023-04-25T06:27:51;94362.44;;;12.25;86.87
43711;BME280;29309;42.682;23.372;2023-04-25T06:30:16;94366.13;;;12.31;85.95
43711;BME280;29309;42.682;23.372;2023-04-25T06:32:47;94384.16;;;12.30;85.71
43711;BME280;29309;42.682;23.372;2023-04-25T06:35:13;94375.94;;;12.34;85.42
43711;BME280;29309;42.682;23.372;2023-04-25T06:37:38;94367.25;;;12.46;84.66
43711;BME280;29309;42.682;23.372;2023-04-25T06:40:04;94359.06;;;12.52;82.75
43711;BME280;29309;42.682;23.372;2023-04-25T06:42:30;94371.38;;;12.69;83.30
43711;BME280;29309;42.682;23.372;2023-04-25T06:44:55;94365.78;;;12.93;83.04
43711;BME280;29309;42.682;23.372;2023-04-25T06:47:20;94370.31;;;13.06;82.68
43711;BME280;29309;42.682;23.372;2023-04-25T06:49:46;94376.72;;;13.10;81.28
43711;BME280;29309;42.682;23.372;2023-04-25T06:52:11;94375.19;;;13.05;79.18
43711;BME280;29309;42.682;23.372;2023-04-25T07:06:23;94375.38;;;13.95;75.84
43711;BME280;29309;42.682;23.372;2023-04-25T07:08:50;94375.25;;;13.89;75.20
43711;BME280;29309;42.682;23.372;2023-04-25T07:11:16;94374.34;;;13.82;74.52
43711;BME280;29309;42.682;23.372;2023-04-25T07:13:41;94382.59;;;13.76;74.92
43711;BME280;29309;42.682;23.372;2023-04-25T07:16:07;94367.19;;;13.73;75.42
43711;BME280;29309;42.682;23.372;2023-04-25T07:18:32;94368.59;;;13.74;76.04
43711;BME280;29309;42.682;23.372;2023-04-25T07:20:57;94361.75;;;13.79;77.11
43711;BME280;29309;42.682;23.372;2023-04-25T07:23:23;94365.97;;;13.80;77.91
43711;BME280;29309;42.682;23.372;2023-04-25T07:25:48;94360.94;;;13.74;77.83
43711;BME280;29309;42.682;23.372;2023-04-25T07:28:14;94363.78;;;13.76;77.42
43711;BME280;29309;42.682;23.372;2023-04-25T07:30:39;94363.91;;;13.82;77.01
43711;BME280;29309;42.682;23.372;2023-04-25T07:33:04;94365.38;;;13.86;76.21
43711;BME280;29309;42.682;23.372;2023-04-25T07:35:30;94363.03;;;13.74;76.50
43711;BME280;29309;42.682;23.372;2023-04-25T07:37:55;94356.25;;;13.83;76.91
43711;BME280;29309;42.682;23.372;2023-04-25T07:40:21;94360.09;;;14.29;78.21
43711;BME280;29309;42.682;23.372;2023-04-25T07:42:46;94362.44;;;14.71;75.45
43711;BME280;29309;42.682;23.372;2023-04-25T07:45:12;94357.13;;;15.21;73.14
43711;BME280;29309;42.682;23.372;2023-04-25T07:47:37;94359.78;;;15.51;71.58
43711;BME280;29309;42.682;23.372;2023-04-25T07:50:04;94365.63;;;15.65;67.70
43711;BME280;29309;42.682;23.372;2023-04-25T07:52:29;94355.81;;;15.64;68.11
43711;BME280;29309;42.682;23.372;2023-04-25T07:54:55;94347.50;;;15.70;68.63
43711;BME280;29309;42.682;23.372;2023-04-25T07:57:20;94352.44;;;15.71;67.94
43711;BME280;29309;42.682;23.372;2023-04-25T07:59:45;94359.16;;;15.56;66.61
43711;BME280;29309;42.682;23.372;2023-04-25T08:02:11;94352.56;;;15.40;66.77
43711;BME280;29309;42.682;23.372;2023-04-25T08:04:36;94341.28;;;15.34;67.26
43711;BME280;29309;42.682;23.372;2023-04-25T08:07:02;94348.34;;;15.39;67.97
43711;BME280;29309;42.682;23.372;2023-04-25T08:09:27;94346.34;;;15.43;68.30
43711;BME280;29309;42.682;23.372;2023-04-25T08:11:54;94342.91;;;15.47;67.15
43711;BME280;29309;42.682;23.372;2023-04-25T08:14:20;94342.38;;;15.56;67.75
43711;BME280;29309;42.682;23.372;2023-04-25T08:16:45;94350.44;;;15.78;67.00
43711;BME280;29309;42.682;23.372;2023-04-25T08:19:11;94357.97;;;16.11;65.93
43711;BME280;29309;42.682;23.372;2023-04-25T08:21:37;94341.44;;;16.32;65.11
43711;BME280;29309;42.682;23.372;2023-04-25T08:24:03;94340.16;;;16.39;63.41
43711;BME280;29309;42.682;23.372;2023-04-25T08:26:29;94328.78;;;16.27;61.61
43711;BME280;29309;42.682;23.372;2023-04-25T08:28:54;94333.03;;;16.30;63.05
43711;BME280;29309;42.682;23.372;2023-04-25T08:31:20;94326.78;;;16.35;64.22
43711;BME280;29309;42.682;23.372;2023-04-25T08:33:45;94321.25;;;16.39;64.09
43711;BME280;29309;42.682;23.372;2023-04-25T08:36:11;94321.06;;;16.77;65.16
43711;BME280;29309;42.682;23.372;2023-04-25T08:38:37;94325.59;;;17.04;62.48
43711;BME280;29309;42.682;23.372;2023-04-25T08:41:02;94329.78;;;17.03;60.69
43711;BME280;29309;42.682;23.372;2023-04-25T08:43:29;94323.44;;;16.99;61.20
43711;BME280;29309;42.682;23.372;2023-04-25T08:45:59;94333.06;;;16.84;60.46
43711;BME280;29309;42.682;23.372;2023-04-25T08:48:27;94326.91;;;16.43;57.33
43711;BME280;29309;42.682;23.372;2023-04-25T08:50:56;94345.63;;;16.29;59.63
43711;BME280;29309;42.682;23.372;2023-04-25T08:53:25;94353.22;;;16.22;65.08
43711;BME280;29309;42.682;23.372;2023-04-25T08:55:53;94353.72;;;16.08;68.53
43711;BME280;29309;42.682;23.372;2023-04-25T08:58:20;94349.94;;;15.92;71.45
43711;BME280;29309;42.682;23.372;2023-04-25T09:00:46;94337.28;;;15.87;73.06
43711;BME280;29309;42.682;23.372;2023-04-25T09:03:12;94330.72;;;15.70;72.11
43711;BME280;29309;42.682;23.372;2023-04-25T09:05:39;94330.97;;;15.84;74.47
43711;BME280;29309;42.682;23.372;2023-04-25T09:08:05;94316.09;;;16.19;75.59
43711;BME280;29309;42.682;23.372;2023-04-25T09:10:31;94317.72;;;16.39;73.16
43711;BME280;29309;42.682;23.372;2023-04-25T09:13:08;94320.75;;;16.55;70.88
43711;BME280;29309;42.682;23.372;2023-04-25T09:15:56;94304.19;;;16.71;69.17
43711;BME280;29309;42.682;23.372;2023-04-25T09:18:29;94308.44;;;16.76;66.52
43711;BME280;29309;42.682;23.372;2023-04-25T09:20:57;94292.22;;;16.68;64.47
43711;BME280;29309;42.682;23.372;2023-04-25T09:23:23;94298.13;;;16.93;64.88
43711;BME280;29309;42.682;23.372;2023-04-25T09:25:50;94297.00;;;17.18;63.64
43711;BME280;29309;42.682;23.372;2023-04-25T09:28:23;94306.66;;;17.05;61.48
43711;BME280;29309;42.682;23.372;2023-04-25T09:30:49;94300.06;;;16.78;62.43
43711;BME280;29309;42.682;23.372;2023-04-25T09:33:14;94297.22;;;16.74;62.67
43711;BME280;29309;42.682;23.372;2023-04-25T09:35:44;94305.56;;;16.70;62.26
43711;BME280;29309;42.682;23.372;2023-04-25T09:38:14;94301.97;;;16.61;62.69
43711;BME280;29309;42.682;23.372;2023-04-25T09:40:46;94300.38;;;16.50;62.86
43711;BME280;29309;42.682;23.372;2023-04-25T09:43:22;94298.25;;;16.47;63.68
43711;BME280;29309;42.682;23.372;2023-04-25T09:45:48;94297.59;;;16.50;64.26
43711;BME280;29309;42.682;23.372;2023-04-25T09:48:18;94298.28;;;16.51;64.15
43711;BME280;29309;42.682;23.372;2023-04-25T09:50:45;94285.72;;;16.52;62.26
43711;BME280;29309;42.682;23.372;2023-04-25T09:53:11;94284.47;;;16.63;61.76
43711;BME280;29309;42.682;23.372;2023-04-25T09:55:37;94288.59;;;16.58;62.69
43711;BME280;29309;42.682;23.372;2023-04-25T09:58:08;94294.13;;;16.52;64.37
43711;BME280;29309;42.682;23.372;2023-04-25T10:00:34;94307.41;;;16.51;63.30
43711;BME280;29309;42.682;23.372;2023-04-25T10:03:05;94303.81;;;16.45;63.20
43711;BME280;29309;42.682;23.372;2023-04-25T10:05:34;94306.56;;;16.41;64.09
43711;BME280;29309;42.682;23.372;2023-04-25T10:08:02;94311.47;;;16.40;64.70
43711;BME280;29309;42.682;23.372;2023-04-25T10:10:30;94305.09;;;16.36;64.44
43711;BME280;29309;42.682;23.372;2023-04-25T10:12:58;94293.75;;;16.25;62.97
43711;BME280;29309;42.682;23.372;2023-04-25T10:15:24;94288.75;;;16.16;63.12
43711;BME280;29309;42.682;23.372;2023-04-25T10:17:50;94280.13;;;16.02;63.97
43711;BME280;29309;42.682;23.372;2023-04-25T10:20:16;94284.81;;;15.87;63.99
43711;BME280;29309;42.682;23.372;2023-04-25T10:22:44;94297.31;;;15.80;64.51
43711;BME280;29309;42.682;23.372;2023-04-25T10:25:11;94307.09;;;15.79;65.58
43711;BME280;29309;42.682;23.372;2023-04-25T10:27:37;94318.31;;;15.81;67.90
43711;BME280;29309;42.682;23.372;2023-04-25T10:30:13;94295.88;;;15.77;71.29
43711;BME280;29309;42.682;23.372;2023-04-25T10:32:44;94283.34;;;15.82;74.45
43711;BME280;29309;42.682;23.372;2023-04-25T10:35:15;94286.41;;;16.00;75.43
43711;BME280;29309;42.682;23.372;2023-04-25T10:38:10;94278.19;;;16.14;71.75
43711;BME280;29309;42.682;23.372;2023-04-25T10:40:37;94284.63;;;16.23;68.02
43711;BME280;29309;42.682;23.372;2023-04-25T10:45:59;94312.00;;;16.27;70.44
43711;BME280;29309;42.682;23.372;2023-04-25T10:48:29;94318.13;;;16.17;70.93
43711;BME280;29309;42.682;23.372;2023-04-25T10:51:11;94307.63;;;16.15;68.92
43711;BME280;29309;42.682;23.372;2023-04-25T10:53:37;94296.59;;;16.28;68.42
43711;BME280;29309;42.682;23.372;2023-04-25T10:56:17;94298.13;;;16.39;63.41
43711;BME280;29309;42.682;23.372;2023-04-25T10:58:44;94297.59;;;16.50;63.76
43711;BME280;29309;42.682;23.372;2023-04-25T11:01:09;94298.34;;;16.53;64.75
43711;BME280;29309;42.682;23.372;2023-04-25T11:03:42;94289.94;;;16.53;65.83
43711;BME280;29309;42.682;23.372;2023-04-25T11:06:31;94294.06;;;16.50;65.27
43711;BME280;29309;42.682;23.372;2023-04-25T11:09:02;94278.69;;;16.51;64.98
43711;BME280;29309;42.682;23.372;2023-04-25T11:11:29;94278.81;;;16.59;65.33
43711;BME280;29309;42.682;23.372;2023-04-25T11:13:55;94276.13;;;16.69;66.30
43711;BME280;29309;42.682;23.372;2023-04-25T11:16:23;94262.38;;;16.91;64.94
43711;BME280;29309;42.682;23.372;2023-04-25T11:18:49;94256.28;;;17.11;63.06
43711;BME280;29309;42.682;23.372;2023-04-25T11:21:15;94259.88;;;17.23;62.83
43711;BME280;29309;42.682;23.372;2023-04-25T11:23:44;94256.41;;;17.25;62.82
43711;BME280;29309;42.682;23.372;2023-04-25T11:26:12;94253.44;;;17.09;61.71
43711;BME280;29309;42.682;23.372;2023-04-25T11:28:38;94262.41;;;16.95;61.69
43711;BME280;29309;42.682;23.372;2023-04-25T11:31:07;94256.66;;;16.83;62.43
43711;BME280;29309;42.682;23.372;2023-04-25T11:33:35;94257.22;;;16.67;61.66
43711;BME280;29309;42.682;23.372;2023-04-25T11:36:01;94254.28;;;16.57;60.36
43711;BME280;29309;42.682;23.372;2023-04-25T11:38:27;94254.13;;;16.45;60.09
43711;BME280;29309;42.682;23.372;2023-04-25T11:40:52;94256.03;;;16.33;61.04
43711;BME280;29309;42.682;23.372;2023-04-25T11:43:21;94265.63;;;16.17;63.08
43711;BME280;29309;42.682;23.372;2023-04-25T11:45:50;94283.75;;;16.10;64.71
43711;BME280;29309;42.682;23.372;2023-04-25T11:48:20;94283.66;;;16.04;65.27
43711;BME280;29309;42.682;23.372;2023-04-25T11:50:45;94276.53;;;15.95;66.25
43711;BME280;29309;42.682;23.372;2023-04-25T11:53:11;94274.34;;;15.88;65.03
43711;BME280;29309;42.682;23.372;2023-04-25T11:55:36;94276.22;;;15.73;59.68
43711;BME280;29309;42.682;23.372;2023-04-25T11:58:03;94258.47;;;15.56;58.18
43711;BME280;29309;42.682;23.372;2023-04-25T12:00:29;94264.56;;;15.47;58.41
43711;BME280;29309;42.682;23.372;2023-04-25T12:02:56;94263.72;;;15.38;57.13
43711;BME280;29309;42.682;23.372;2023-04-25T12:05:31;94253.94;;;15.37;57.50
43711;BME280;29309;42.682;23.372;2023-04-25T12:08:09;94260.28;;;15.40;57.91
43711;BME280;29309;42.682;23.372;2023-04-25T12:10:37;94253.94;;;15.37;56.79
43711;BME280;29309;42.682;23.372;2023-04-25T12:13:21;94246.47;;;15.50;59.64
43711;BME280;29309;42.682;23.372;2023-04-25T12:15:47;94251.41;;;15.51;58.41
43711;BME280;29309;42.682;23.372;2023-04-25T12:18:12;94256.47;;;15.21;56.90
43711;BME280;29309;42.682;23.372;2023-04-25T12:20:38;94262.84;;;14.88;58.88
43711;BME280;29309;42.682;23.372;2023-04-25T12:23:07;94251.66;;;14.86;59.90
43711;BME280;29309;42.682;23.372;2023-04-25T12:25:41;94247.50;;;14.89;60.12
43711;BME280;29309;42.682;23.372;2023-04-25T12:28:24;94253.19;;;14.93;60.94
43711;BME280;29309;42.682;23.372;2023-04-25T12:31:02;94252.63;;;15.00;61.02
43711;BME280;29309;42.682;23.372;2023-04-25T12:33:29;94249.00;;;14.94;58.39
43711;BME280;29309;42.682;23.372;2023-04-25T12:35:55;94252.75;;;14.70;58.29
43711;BME280;29309;42.682;23.372;2023-04-25T12:38:26;94270.06;;;14.63;58.93
43711;BME280;29309;42.682;23.372;2023-04-25T12:40:52;94300.28;;;14.72;61.92
43711;BME280;29309;42.682;23.372;2023-04-25T12:43:18;94312.31;;;14.79;65.72
43711;BME280;29309;42.682;23.372;2023-04-25T12:45:46;94315.66;;;14.71;69.65
43711;BME280;29309;42.682;23.372;2023-04-25T12:48:12;94305.66;;;14.60;71.70
43711;BME280;29309;42.682;23.372;2023-04-25T12:50:38;94316.03;;;14.56;72.95
43711;BME280;29309;42.682;23.372;2023-04-25T12:53:03;94313.69;;;14.44;73.18
43711;BME280;29309;42.682;23.372;2023-04-25T12:55:29;94309.41;;;14.39;73.00
43711;BME280;29309;42.682;23.372;2023-04-25T12:57:54;94314.19;;;14.35;72.82
43711;BME280;29309;42.682;23.372;2023-04-25T13:00:23;94320.41;;;14.33;73.37